sensor_id;sensor_type;location;lat;lon;timestamp;P1;durP1;ratioP1;P2;durP2;ratioP2
45764;SDS011;31474;45.332;10.230;2024-02-04T19:34:00;10.90;;;9.60;;
45764;SDS011;31474;45.332;10.230;2024-02-04T19:36:26;10.73;;;9.60;;
45764;SDS011;31474;45.332;10.230;2024-02-04T19:38:52;10.63;;;9.38;;
45764;SDS011;31474;45.332;10.230;2024-02-04T19:41:17;10.15;;;9.15;;
45764;SDS011;31474;45.332;10.230;2024-02-04T19:43:43;11.15;;;9.55;;
45764;SDS011;31474;45.332;10.230;2024-02-04T19:46:08;14.90;;;9.50;;
45764;SDS011;31474;45.332;10.230;2024-02-04T19:48:34;15.82;;;10.35;;
45764;SDS011;31474;45.332;10.230;2024-02-04T19:50:59;10.77;;;8.05;;
45764;SDS011;31474;45.332;10.230;2024-02-04T19:53:25;11.88;;;8.15;;
45764;SDS011;31474;45.332;10.230;2024-02-04T19:55:51;11.35;;;8.60;;
45764;SDS011;31474;45.332;10.230;2024-02-04T19:58:17;12.38;;;8.45;;
45764;SDS011;31474;45.332;10.230;2024-02-04T20:00:42;9.68;;;8.65;;
45764;SDS011;31474;45.332;10.230;2024-02-04T20:03:08;9.85;;;7.65;;
45764;SDS011;31474;45.332;10.230;2024-02-04T20:05:34;9.20;;;8.05;;
45764;SDS011;31474;45.332;10.230;2024-02-04T20:08:00;9.80;;;8.48;;
45764;SDS011;31474;45.332;10.230;2024-02-04T20:10:25;10.15;;;8.15;;
45764;SDS011;31474;45.332;10.230;2024-02-04T20:12:51;9.07;;;8.18;;
45764;SDS011;31474;45.332;10.230;2024-02-04T20:15:17;8.60;;;7.80;;
45764;SDS011;31474;45.332;10.230;2024-02-04T20:17:51;10.32;;;8.65;;
45764;SDS011;31474;45.332;10.230;2024-02-04T20:20:18;9.90;;;8.70;;
45764;SDS011;31474;45.332;10.230;2024-02-04T20:22:44;11.82;;;8.07;;
45764;SDS011;31474;45.332;10.230;2024-02-04T20:25:10;10.38;;;8.20;;
45764;SDS011;31474;45.332;10.230;2024-02-04T20:27:36;16.00;;;8.85;;
45764;SDS011;31474;45.332;10.230;2024-02-04T20:30:02;9.55;;;8.15;;
45764;SDS011;31474;45.332;10.230;2024-02-04T20:32:28;9.10;;;7.65;;
45764;SDS011;31474;45.332;10.230;2024-02-04T20:34:54;9.65;;;8.63;;
45764;SDS011;31474;45.332;10.230;2024-02-04T20:37:19;11.10;;;8.60;;
45764;SDS011;31474;45.332;10.230;2024-02-04T20:39:45;10.70;;;8.30;;
45764;SDS011;31474;45.332;10.230;2024-02-04T20:42:11;16.50;;;8.23;;
45764;SDS011;31474;45.332;10.230;2024-02-04T20:44:39;14.45;;;8.38;;
45764;SDS011;31474;45.332;10.230;2024-02-04T20:47:07;10.07;;;8.55;;
45764;SDS011;31474;45.332;10.230;2024-02-04T20:49:33;14.00;;;8.02;;
45764;SDS011;31474;45.332;10.230;2024-02-04T20:51:59;8.57;;;7.47;;
45764;SDS011;31474;45.332;10.230;2024-02-04T20:54:24;8.02;;;7.22;;
45764;SDS011;31474;45.332;10.230;2024-02-04T20:56:50;8.48;;;7.57;;
45764;SDS011;31474;45.332;10.230;2024-02-04T20:59:16;10.00;;;8.02;;
45764;SDS011;31474;45.332;10.230;2024-02-04T21:01:46;9.45;;;7.57;;
45764;SDS011;31474;45.332;10.230;2024-02-04T21:04:14;7.85;;;6.93;;
45764;SDS011;31474;45.332;10.230;2024-02-04T21:06:43;9.27;;;7.50;;
45764;SDS011;31474;45.332;10.230;2024-02-04T21:09:09;10.57;;;7.63;;
45764;SDS011;31474;45.332;10.230;2024-02-04T21:11:34;7.90;;;7.20;;
45764;SDS011;31474;45.332;10.230;2024-02-04T21:14:01;8.95;;;7.82;;
45764;SDS011;31474;45.332;10.230;2024-02-04T21:16:27;9.55;;;7.65;;
45764;SDS011;31474;45.332;10.230;2024-02-04T21:18:53;8.90;;;7.57;;
45764;SDS011;31474;45.332;10.230;2024-02-04T21:21:18;11.23;;;7.82;;
45764;SDS011;31474;45.332;10.230;2024-02-04T21:23:44;10.35;;;7.25;;
45764;SDS011;31474;45.332;10.230;2024-02-04T21:26:10;9.25;;;7.72;;
45764;SDS011;31474;45.332;10.230;2024-02-04T21:28:37;9.18;;;8.27;;
45764;SDS011;31474;45.332;10.230;2024-02-04T21:31:05;8.73;;;7.82;;
45764;SDS011;31474;45.332;10.230;2024-02-04T21:33:32;8.05;;;7.15;;
45764;SDS011;31474;45.332;10.230;2024-02-04T21:35:58;9.15;;;6.95;;
45764;SDS011;31474;45.332;10.230;2024-02-04T21:38:24;8.05;;;7.28;;
45764;SDS011;31474;45.332;10.230;2024-02-04T21:40:49;7.45;;;6.65;;
45764;SDS011;31474;45.332;10.230;2024-02-04T21:43:15;10.02;;;6.95;;
45764;SDS011;31474;45.332;10.230;2024-02-04T21:45:41;7.97;;;7.22;;
45764;SDS011;31474;45.332;10.230;2024-02-04T21:48:06;10.55;;;7.50;;
45764;SDS011;31474;45.332;10.230;2024-02-04T21:50:32;7.90;;;7.20;;
45764;SDS011;31474;45.332;10.230;2024-02-04T21:53:00;7.68;;;6.95;;
45764;SDS011;31474;45.332;10.230;2024-02-04T21:55:30;8.00;;;7.20;;
45764;SDS011;31474;45.332;10.230;2024-02-04T21:57:56;7.68;;;6.97;;
45764;SDS011;31474;45.332;10.230;2024-02-04T22:00:21;8.60;;;7.78;;
45764;SDS011;31474;45.332;10.230;2024-02-04T22:02:47;7.10;;;6.40;;
45764;SDS011;31474;45.332;10.230;2024-02-04T22:05:16;10.40;;;6.70;;
45764;SDS011;31474;45.332;10.230;2024-02-04T22:07:43;8.13;;;7.43;;
45764;SDS011;31474;45.332;10.230;2024-02-04T22:10:09;8.57;;;6.63;;
45764;SDS011;31474;45.332;10.230;2024-02-04T22:12:35;8.05;;;6.95;;
45764;SDS011;31474;45.332;10.230;2024-02-04T22:15:01;7.38;;;6.68;;
45764;SDS011;31474;45.332;10.230;2024-02-04T22:17:28;7.80;;;7.03;;
45764;SDS011;31474;45.332;10.230;2024-02-04T22:19:55;13.32;;;7.30;;
45764;SDS011;31474;45.332;10.230;2024-02-04T22:22:20;7.90;;;7.20;;
45764;SDS011;31474;45.332;10.230;2024-02-04T22:24:49;7.72;;;6.97;;
45764;SDS011;31474;45.332;10.230;2024-02-04T22:27:14;7.82;;;7.13;;
45764;SDS011;31474;45.332;10.230;2024-02-04T22:29:40;7.40;;;6.70;;
45764;SDS011;31474;45.332;10.230;2024-02-04T22:32:06;7.95;;;7.15;;
45764;SDS011;31474;45.332;10.230;2024-02-04T22:34:32;8.27;;;7.05;;
45764;SDS011;31474;45.332;10.230;2024-02-04T22:36:57;8.57;;;7.35;;
45764;SDS011;31474;45.332;10.230;2024-02-04T22:39:23;8.02;;;7.22;;
45764;SDS011;31474;45.332;10.230;2024-02-04T22:41:49;8.05;;;7.25;;
45764;SDS011;31474;45.332;10.230;2024-02-04T22:44:14;7.57;;;6.82;;
45764;SDS011;31474;45.332;10.230;2024-02-04T22:46:40;7.90;;;7.20;;
45764;SDS011;31474;45.332;10.230;2024-02-04T22:49:06;7.80;;;7.00;;
45764;SDS011;31474;45.332;10.230;2024-02-04T22:51:31;8.50;;;7.20;;
45764;SDS011;31474;45.332;10.230;2024-02-04T22:54:00;7.70;;;6.90;;
45764;SDS011;31474;45.332;10.230;2024-02-04T22:56:25;7.72;;;6.93;;
45764;SDS011;31474;45.332;10.230;2024-02-04T22:58:51;7.75;;;7.05;;
45764;SDS011;31474;45.332;10.230;2024-02-04T23:01:16;7.80;;;7.03;;
45764;SDS011;31474;45.332;10.230;2024-02-04T23:03:42;7.43;;;6.72;;
45764;SDS011;31474;45.332;10.230;2024-02-04T23:06:09;7.88;;;7.18;;
45764;SDS011;31474;45.332;10.230;2024-02-04T23:08:35;8.00;;;7.20;;
45764;SDS011;31474;45.332;10.230;2024-02-04T23:11:01;7.82;;;7.07;;
45764;SDS011;31474;45.332;10.230;2024-02-04T23:13:27;8.68;;;7.60;;
45764;SDS011;31474;45.332;10.230;2024-02-04T23:15:53;7.82;;;6.93;;
45764;SDS011;31474;45.332;10.230;2024-02-04T23:18:20;8.18;;;6.95;;
45764;SDS011;31474;45.332;10.230;2024-02-04T23:20:46;6.90;;;5.97;;
45764;SDS011;31474;45.332;10.230;2024-02-04T23:23:12;7.43;;;6.72;;
45764;SDS011;31474;45.332;10.230;2024-02-04T23:25:37;7.10;;;6.50;;
45764;SDS011;31474;45.332;10.230;2024-02-04T23:28:03;8.48;;;7.53;;
45764;SDS011;31474;45.332;10.230;2024-02-04T23:30:29;9.05;;;8.15;;
45764;SDS011;31474;45.332;10.230;2024-02-04T23:32:55;7.55;;;6.85;;
45764;SDS011;31474;45.332;10.230;2024-02-04T23:35:21;8.70;;;7.80;;
45764;SDS011;31474;45.332;10.230;2024-02-04T23:37:46;7.60;;;6.90;;
45764;SDS011;31474;45.332;10.230;2024-02-04T23:40:12;7.65;;;7.03;;
45764;SDS011;31474;45.332;10.230;2024-02-04T23:42:38;8.07;;;7.28;;
45764;SDS011;31474;45.332;10.230;2024-02-04T23:45:04;6.90;;;6.25;;
45764;SDS011;31474;45.332;10.230;2024-02-04T23:47:30;7.70;;;7.00;;
45764;SDS011;31474;45.332;10.230;2024-02-04T23:49:56;8.15;;;7.45;;
45764;SDS011;31474;45.332;10.230;2024-02-04T23:52:23;7.80;;;7.10;;
45764;SDS011;31474;45.332;10.230;2024-02-04T23:54:49;11.68;;;9.23;;
45764;SDS011;31474;45.332;10.230;2024-02-04T23:57:15;7.50;;;6.80;;
45764;SDS011;31474;45.332;10.230;2024-02-04T23:59:41;10.93;;;7.20;;
